aviador You're here:

KVBG Decoded Metar

LOMPOC in CA, USA
Report Time2018-06-23 05:08:00
UTC Time2018-06-23 05:57:29
Flight Rules lifr LIFR
Wind340° at 05 kt
W.Decomp.*RWY 30: 4.5 kt HW 2.2 kt RCW
W.Rank340° ranks 4
Current wind is below 340° avg. (8.7)
Visibility9656 m
Phenomena:Mist
Clouds:Overcast 003 Hf
Expected CloudBase > 400 ft AGL from Temp-Dew spread
Ceiling300 ft
Temp12°C (ISA -2)
Dew Point11°C (94% RH)
AAT10.5°C
QNH1011 hPa
Density Alt341 ft
Elevation367 ft
Report Wrong Elevation
Raw Report
SPECI KVBG 230508Z AUTO 34005KT 6SM BR OVC003 12/11 A2985 RMK AO2 SLP111=

Extra information for KVBG:More info

Metar Taf Metar & Taf Last 4 Metars F.Rules Stats Wind Profile Meteogram Temp Stats Airport Information Weather charts Add Link Nearby VenuesMetar ALERT Operation Metar Decoded Social comments

AIRNAV info for KVBG